createdAt,value
2022-12-26T00:01:12.755Z,4.91
2022-12-26T00:03:40.204Z,4.89
2022-12-26T00:06:16.291Z,4.80
2022-12-26T00:08:44.535Z,4.73
2022-12-26T00:11:12.270Z,4.81
2022-12-26T00:13:42.807Z,4.77
2022-12-26T00:16:12.372Z,4.73
2022-12-26T00:18:39.950Z,4.73
2022-12-26T00:21:08.690Z,4.71
2022-12-26T00:23:36.535Z,4.72
2022-12-26T00:26:05.648Z,4.59
2022-12-26T00:28:32.588Z,4.66
2022-12-26T00:31:03.052Z,4.61
2022-12-26T00:33:30.143Z,4.59
2022-12-26T00:36:05.311Z,4.46
2022-12-26T00:38:32.304Z,4.44
2022-12-26T00:40:59.311Z,4.31
2022-12-26T00:43:26.500Z,4.38
2022-12-26T00:45:53.451Z,4.35
2022-12-26T00:48:20.532Z,4.23
2022-12-26T00:50:47.534Z,4.10
2022-12-26T00:53:14.515Z,4.10
2022-12-26T00:55:41.390Z,4.07
2022-12-26T00:58:08.495Z,4.07
2022-12-26T01:00:35.817Z,3.98
2022-12-26T01:03:03.290Z,3.94
2022-12-26T01:05:30.439Z,3.91
2022-12-26T01:08:21.184Z,3.89
2022-12-26T01:10:46.772Z,3.77
2022-12-26T01:13:14.621Z,3.80
2022-12-26T01:15:48.234Z,3.83
2022-12-26T01:18:15.340Z,3.79
2022-12-26T01:20:42.453Z,3.81
2022-12-26T01:23:09.478Z,3.83
2022-12-26T01:25:36.423Z,3.83
2022-12-26T01:28:23.503Z,3.84
2022-12-26T01:30:50.739Z,3.87
2022-12-26T01:33:17.686Z,3.93
2022-12-26T01:35:52.055Z,3.78
2022-12-26T01:38:19.309Z,3.76
2022-12-26T01:40:47.086Z,3.75
2022-12-26T01:43:15.856Z,3.74
2022-12-26T01:45:49.861Z,3.76
2022-12-26T01:48:33.537Z,3.78
2022-12-26T01:51:06.213Z,3.82
2022-12-26T01:53:48.231Z,3.79
2022-12-26T01:56:23.887Z,3.85
2022-12-26T01:58:56.577Z,3.90
2022-12-26T02:01:29.107Z,3.75
2022-12-26T02:04:15.217Z,3.76
2022-12-26T02:06:42.939Z,3.82
2022-12-26T02:09:10.407Z,3.79
2022-12-26T02:11:45.397Z,3.76
2022-12-26T02:14:12.305Z,3.86
2022-12-26T02:16:41.135Z,3.85
2022-12-26T02:19:25.041Z,3.91
2022-12-26T02:22:53.624Z,3.95
2022-12-26T02:25:35.232Z,3.91
2022-12-26T02:28:23.752Z,3.97
2022-12-26T02:30:59.700Z,4.01
2022-12-26T02:33:41.864Z,4.04
2022-12-26T02:36:27.408Z,3.82
2022-12-26T02:39:45.664Z,3.87
2022-12-26T02:42:17.080Z,3.80
2022-12-26T02:45:13.475Z,3.80
2022-12-26T02:47:52.346Z,3.81
2022-12-26T02:50:40.837Z,3.70
2022-12-26T02:53:39.090Z,3.71
2022-12-26T02:56:53.532Z,3.64
2022-12-26T02:59:53.772Z,3.59
2022-12-26T03:02:55.101Z,3.53
2022-12-26T03:05:54.848Z,3.49
2022-12-26T03:08:49.545Z,3.46
2022-12-26T03:26:40.665Z,2.54
2022-12-26T03:29:34.492Z,2.67
2022-12-26T03:32:03.422Z,2.82
2022-12-26T03:34:30.451Z,2.95
2022-12-26T03:37:15.521Z,3.04
2022-12-26T03:40:32.913Z,3.07
2022-12-26T03:43:31.238Z,3.12
2022-12-26T03:46:41.928Z,3.21
2022-12-26T03:49:48.100Z,3.21
2022-12-26T03:52:42.453Z,3.17
2022-12-26T03:56:00.915Z,3.15
2022-12-26T03:58:55.167Z,3.09
2022-12-26T04:01:45.780Z,2.99
2022-12-26T04:04:34.308Z,3.02
2022-12-26T04:07:56.524Z,2.91
2022-12-26T04:10:57.365Z,2.98
2022-12-26T04:13:54.795Z,2.88
2022-12-26T04:17:03.430Z,2.87
2022-12-26T04:20:04.298Z,2.84
2022-12-26T04:22:59.995Z,2.74
2022-12-26T04:25:54.255Z,2.82
2022-12-26T04:28:41.705Z,2.82
2022-12-26T04:31:36.009Z,2.82
2022-12-26T04:34:28.311Z,2.79
2022-12-26T04:37:19.984Z,2.88
2022-12-26T04:40:10.668Z,2.84
2022-12-26T04:42:57.250Z,2.87
2022-12-26T04:45:24.402Z,2.89
2022-12-26T04:48:09.816Z,2.83
2022-12-26T04:50:37.100Z,2.71
2022-12-26T04:53:04.019Z,2.69
2022-12-26T04:55:33.377Z,2.77
2022-12-26T04:58:00.726Z,2.75
2022-12-26T05:00:28.925Z,2.73
2022-12-26T05:03:18.988Z,2.71
2022-12-26T05:06:07.377Z,2.69
2022-12-26T05:09:02.243Z,2.56
2022-12-26T05:11:30.946Z,2.54
2022-12-26T05:13:59.197Z,2.53
2022-12-26T05:16:46.351Z,2.57
2022-12-26T05:19:33.398Z,2.60
2022-12-26T05:22:20.967Z,2.58
2022-12-26T05:25:06.587Z,2.62
2022-12-26T05:27:58.812Z,2.59
2022-12-26T05:30:26.398Z,2.57
2022-12-26T05:33:11.732Z,2.52
2022-12-26T05:35:39.941Z,2.59
2022-12-26T05:38:09.720Z,2.58
2022-12-26T05:40:36.869Z,2.56
2022-12-26T05:43:03.823Z,2.59
2022-12-26T05:45:32.099Z,2.79
2022-12-26T05:48:03.329Z,2.97
2022-12-26T05:50:30.488Z,3.16
2022-12-26T05:52:59.552Z,3.38
2022-12-26T05:55:26.850Z,3.53
2022-12-26T05:57:53.953Z,3.77
2022-12-26T06:00:23.609Z,3.83
2022-12-26T06:02:50.751Z,4.22
2022-12-26T06:05:20.720Z,4.57
2022-12-26T06:07:50.673Z,5.09
2022-12-26T06:10:19.803Z,5.43
2022-12-26T06:12:46.816Z,5.53
2022-12-26T06:15:13.620Z,5.66
2022-12-26T06:17:40.596Z,6.09
2022-12-26T06:20:11.209Z,6.34
2022-12-26T06:22:38.369Z,7.24
2022-12-26T06:25:05.844Z,7.71
2022-12-26T06:27:33.247Z,8.44
2022-12-26T06:30:00.258Z,8.32
2022-12-26T06:32:27.191Z,9.88
2022-12-26T06:34:54.034Z,9.26
2022-12-26T06:37:20.984Z,9.92
2022-12-26T06:39:48.015Z,10.49
2022-12-26T06:42:14.946Z,10.92
2022-12-26T06:44:41.909Z,10.71
2022-12-26T06:47:09.164Z,10.93
2022-12-26T06:49:36.193Z,11.71
2022-12-26T06:52:03.158Z,11.91
2022-12-26T06:54:37.265Z,11.83
2022-12-26T06:57:04.169Z,11.89
2022-12-26T06:59:31.237Z,11.81
2022-12-26T07:01:58.551Z,12.11
2022-12-26T07:04:26.199Z,12.21
2022-12-26T07:06:53.194Z,12.27
2022-12-26T07:09:20.353Z,11.72
2022-12-26T07:11:49.603Z,12.31
2022-12-26T07:14:17.416Z,13.07
2022-12-26T07:16:45.365Z,14.76
2022-12-26T07:19:13.890Z,14.44
2022-12-26T07:21:41.628Z,14.57
2022-12-26T07:24:15.151Z,15.19
2022-12-26T07:26:42.301Z,16.06
2022-12-26T07:29:12.097Z,15.38
2022-12-26T07:31:39.663Z,15.61
2022-12-26T07:34:07.115Z,16.72
2022-12-26T07:36:34.080Z,17.60
2022-12-26T07:39:00.918Z,18.55
2022-12-26T07:41:47.848Z,19.18
2022-12-26T07:44:14.855Z,19.22
2022-12-26T07:46:41.810Z,19.91
2022-12-26T07:49:09.195Z,19.87
2022-12-26T07:51:36.098Z,19.61
2022-12-26T07:54:08.874Z,19.33
2022-12-26T07:56:37.923Z,19.56
2022-12-26T07:59:04.937Z,16.83
2022-12-26T08:01:31.942Z,17.93
2022-12-26T08:03:59.111Z,18.01
2022-12-26T08:06:26.034Z,16.74
2022-12-26T08:08:52.924Z,15.78
2022-12-26T08:11:22.999Z,15.22
2022-12-26T08:13:50.785Z,15.49
2022-12-26T08:16:18.310Z,15.39
2022-12-26T08:18:45.243Z,15.51
2022-12-26T08:21:14.170Z,15.45
2022-12-26T08:23:41.433Z,14.88
2022-12-26T08:26:12.138Z,15.07
2022-12-26T08:28:42.044Z,14.16
2022-12-26T08:31:10.476Z,14.88
2022-12-26T08:33:37.515Z,15.58
2022-12-26T08:36:06.131Z,17.48
2022-12-26T08:38:34.003Z,17.00
2022-12-26T08:41:01.430Z,17.80
2022-12-26T08:43:53.222Z,17.21
2022-12-26T08:46:16.686Z,17.73
2022-12-26T08:48:43.893Z,18.38
2022-12-26T08:51:20.024Z,18.09
2022-12-26T08:53:49.655Z,17.95
2022-12-26T08:56:19.687Z,18.58
2022-12-26T08:58:47.729Z,17.95
2022-12-26T09:01:21.001Z,18.20
2022-12-26T09:03:48.333Z,20.23
2022-12-26T09:06:15.875Z,20.60
2022-12-26T09:08:42.981Z,19.81
2022-12-26T09:11:15.715Z,19.30
2022-12-26T09:13:44.318Z,19.92
2022-12-26T09:16:15.563Z,20.06
2022-12-26T09:18:43.577Z,20.39
2022-12-26T09:21:11.945Z,19.56
2022-12-26T09:23:40.330Z,21.39
2022-12-26T09:26:13.511Z,21.21
2022-12-26T09:28:41.021Z,20.31
2022-12-26T09:31:11.981Z,21.35
2022-12-26T09:33:39.574Z,22.75
2022-12-26T09:36:14.184Z,22.19
2022-12-26T09:38:42.409Z,22.41
2022-12-26T09:41:24.291Z,22.42
2022-12-26T09:44:18.821Z,24.02
2022-12-26T09:47:08.216Z,23.64
2022-12-26T09:49:40.726Z,24.85
2022-12-26T09:52:21.008Z,25.41
2022-12-26T09:54:58.937Z,28.86
2022-12-26T09:57:41.762Z,27.32
2022-12-26T10:00:18.813Z,26.31
2022-12-26T10:02:53.228Z,26.15
2022-12-26T10:05:29.096Z,20.37
2022-12-26T10:08:03.640Z,20.79
2022-12-26T10:10:42.844Z,20.62
2022-12-26T10:13:44.082Z,21.93
2022-12-26T10:16:38.073Z,21.75
2022-12-26T10:19:32.677Z,19.97
2022-12-26T10:22:32.478Z,21.11
2022-12-26T10:25:01.719Z,21.43
2022-12-26T10:27:34.996Z,21.69
2022-12-26T10:30:06.426Z,20.93
2022-12-26T10:32:46.830Z,19.09
2022-12-26T10:35:37.696Z,21.68
2022-12-26T10:38:13.374Z,22.03
2022-12-26T10:40:44.637Z,22.94
2022-12-26T10:43:20.280Z,22.40
2022-12-26T10:46:18.270Z,22.07
2022-12-26T10:48:46.107Z,23.07
2022-12-26T10:51:14.128Z,22.75
2022-12-26T10:53:47.237Z,23.91
2022-12-26T10:56:18.234Z,23.63
2022-12-26T10:58:49.557Z,23.76
2022-12-26T11:01:30.121Z,23.53
2022-12-26T11:03:59.822Z,22.69
2022-12-26T11:06:43.044Z,22.87
2022-12-26T11:09:28.698Z,23.24
2022-12-26T11:11:58.591Z,23.08
2022-12-26T11:14:33.288Z,23.71
2022-12-26T11:17:14.127Z,23.87
2022-12-26T11:19:42.905Z,24.10
2022-12-26T11:22:23.414Z,22.34
2022-12-26T11:25:12.316Z,22.28
2022-12-26T11:27:54.058Z,22.79
2022-12-26T11:30:32.711Z,22.87
2022-12-26T11:33:30.743Z,23.76
2022-12-26T11:36:17.573Z,23.78
2022-12-26T11:38:56.047Z,23.16
2022-12-26T11:41:32.414Z,23.22
2022-12-26T11:44:05.576Z,22.30
2022-12-26T11:46:41.526Z,21.39
2022-12-26T11:49:37.868Z,22.39
2022-12-26T11:52:35.266Z,24.05
2022-12-26T11:55:02.427Z,24.22
2022-12-26T11:57:31.734Z,24.16
2022-12-26T12:00:22.162Z,23.18
2022-12-26T12:02:49.418Z,20.81
2022-12-26T12:05:28.652Z,21.27
2022-12-26T12:08:14.210Z,21.00
2022-12-26T12:11:09.610Z,21.89
2022-12-26T12:13:51.578Z,21.53
2022-12-26T12:16:42.816Z,22.11
2022-12-26T12:19:43.043Z,20.92
2022-12-26T12:22:18.825Z,22.14
2022-12-26T12:24:48.499Z,21.75
2022-12-26T12:27:36.968Z,20.39
2022-12-26T12:30:29.537Z,20.71
2022-12-26T12:33:23.582Z,20.10
2022-12-26T12:35:53.474Z,17.83
2022-12-26T12:38:56.531Z,15.24
2022-12-26T12:42:14.644Z,12.66
2022-12-26T12:45:00.131Z,12.05
2022-12-26T12:47:42.132Z,11.38
2022-12-26T12:51:10.187Z,10.68
2022-12-26T12:53:42.696Z,10.06
2022-12-26T12:56:41.948Z,9.97
2022-12-26T12:59:27.802Z,9.36
2022-12-26T13:02:07.193Z,9.35
2022-12-26T13:04:42.074Z,9.43
2022-12-26T13:07:25.252Z,9.48
2022-12-26T13:10:02.009Z,9.41
2022-12-26T13:12:36.334Z,9.45
2022-12-26T13:15:06.886Z,9.20
2022-12-26T13:17:41.083Z,8.96
2022-12-26T13:20:40.521Z,8.79
2022-12-26T13:23:59.793Z,8.92
2022-12-26T13:27:03.419Z,8.81
2022-12-26T13:29:39.694Z,8.74
2022-12-26T13:32:29.731Z,8.78
2022-12-26T13:34:59.557Z,8.82
2022-12-26T13:37:35.427Z,8.70
2022-12-26T13:40:07.261Z,8.80
2022-12-26T13:42:56.487Z,8.67
2022-12-26T13:45:35.493Z,8.62
2022-12-26T13:48:23.180Z,8.57
2022-12-26T13:51:03.261Z,8.45
2022-12-26T13:53:34.447Z,8.46
2022-12-26T13:56:04.532Z,8.42
2022-12-26T13:58:43.500Z,8.44
2022-12-26T14:01:53.706Z,8.42
2022-12-26T14:04:31.019Z,8.44
2022-12-26T14:07:59.903Z,8.41
2022-12-26T14:10:48.645Z,8.34
2022-12-26T14:13:33.795Z,8.41
2022-12-26T14:16:28.485Z,8.41
2022-12-26T14:19:21.491Z,8.28
2022-12-26T14:22:06.062Z,8.28
2022-12-26T14:25:03.434Z,8.20
2022-12-26T14:27:42.969Z,8.05
2022-12-26T14:30:34.735Z,8.07
2022-12-26T14:33:20.476Z,8.07
2022-12-26T14:36:00.888Z,8.06
2022-12-26T14:38:40.917Z,8.00
2022-12-26T14:41:32.198Z,7.94
2022-12-26T14:44:21.639Z,7.97
2022-12-26T14:46:48.430Z,7.90
2022-12-26T14:49:35.225Z,7.89
2022-12-26T14:52:32.667Z,7.85
2022-12-26T14:54:59.707Z,7.78
2022-12-26T14:57:47.029Z,7.79
2022-12-26T15:00:34.754Z,7.74
2022-12-26T15:03:04.724Z,7.77
2022-12-26T15:05:37.743Z,7.71
2022-12-26T15:08:22.931Z,7.69
2022-12-26T15:11:20.250Z,7.66
2022-12-26T15:29:23.588Z,6.90
2022-12-26T15:32:13.498Z,7.01
2022-12-26T15:35:15.474Z,7.17
2022-12-26T15:37:52.367Z,7.26
2022-12-26T15:40:32.953Z,7.29
2022-12-26T15:42:59.833Z,7.28
2022-12-26T15:45:32.435Z,7.35
2022-12-26T15:48:04.992Z,7.34
2022-12-26T15:50:52.643Z,7.33
2022-12-26T15:53:29.704Z,7.28
2022-12-26T15:56:02.395Z,7.24
2022-12-26T15:58:35.330Z,7.32
2022-12-26T16:01:02.428Z,7.37
2022-12-26T16:03:29.671Z,7.33
2022-12-26T16:06:34.996Z,7.38
2022-12-26T16:09:24.772Z,7.37
2022-12-26T16:11:56.025Z,7.28
2022-12-26T16:14:30.997Z,7.31
2022-12-26T16:17:16.180Z,7.27
2022-12-26T16:19:48.500Z,7.32
2022-12-26T16:22:49.581Z,7.34
2022-12-26T16:25:23.978Z,7.31
2022-12-26T16:27:55.600Z,7.38
2022-12-26T16:30:28.705Z,7.24
2022-12-26T16:32:56.323Z,7.27
2022-12-26T16:35:27.372Z,7.30
2022-12-26T16:37:57.158Z,7.22
2022-12-26T16:40:41.537Z,7.23
2022-12-26T16:43:17.716Z,7.22
2022-12-26T16:45:58.903Z,7.19
2022-12-26T16:48:28.309Z,7.22
2022-12-26T16:51:01.887Z,7.29
2022-12-26T16:53:34.491Z,7.34
2022-12-26T16:56:29.099Z,7.35
2022-12-26T16:59:17.998Z,7.43
2022-12-26T17:01:54.989Z,7.37
2022-12-26T17:04:24.517Z,7.26
2022-12-26T17:07:04.779Z,7.30
2022-12-26T17:09:39.403Z,7.42
2022-12-26T17:12:16.397Z,7.39
2022-12-26T17:14:47.476Z,7.41
2022-12-26T17:17:23.196Z,7.37
2022-12-26T17:19:54.405Z,7.34
2022-12-26T17:22:27.840Z,7.38
2022-12-26T17:25:17.517Z,7.38
2022-12-26T17:27:45.579Z,7.40
2022-12-26T17:30:27.553Z,7.33
2022-12-26T17:32:56.085Z,7.37
2022-12-26T17:35:26.025Z,7.40
2022-12-26T17:38:01.055Z,7.32
2022-12-26T17:40:33.785Z,7.38
2022-12-26T17:43:11.425Z,7.37
2022-12-26T17:45:46.818Z,7.32
2022-12-26T17:48:14.329Z,7.34
2022-12-26T17:50:44.163Z,7.44
2022-12-26T17:53:36.624Z,7.50
2022-12-26T17:56:06.650Z,7.52
2022-12-26T17:58:34.752Z,7.48
2022-12-26T18:01:02.295Z,7.51
2022-12-26T18:03:29.417Z,7.50
2022-12-26T18:05:56.621Z,7.49
2022-12-26T18:08:38.429Z,7.39
2022-12-26T18:11:10.939Z,7.43
2022-12-26T18:13:38.161Z,7.40
2022-12-26T18:16:05.787Z,7.45
2022-12-26T18:18:40.848Z,7.47
2022-12-26T18:21:10.490Z,7.48
2022-12-26T18:23:37.745Z,7.47
2022-12-26T18:26:09.143Z,7.52
2022-12-26T18:28:36.396Z,7.50
2022-12-26T18:31:03.492Z,7.52
2022-12-26T18:33:30.291Z,7.44
2022-12-26T18:35:57.211Z,7.49
2022-12-26T18:38:24.057Z,7.48
2022-12-26T18:40:58.111Z,7.55
2022-12-26T18:43:25.005Z,7.47
2022-12-26T18:45:53.244Z,7.50
2022-12-26T18:48:20.356Z,7.52
2022-12-26T18:50:47.490Z,7.50
2022-12-26T18:53:14.345Z,7.42
2022-12-26T18:55:41.573Z,7.42
2022-12-26T18:58:08.439Z,7.29
2022-12-26T19:00:36.511Z,7.45
2022-12-26T19:03:04.132Z,7.51
2022-12-26T19:05:33.993Z,7.43
2022-12-26T19:08:01.965Z,7.36
2022-12-26T19:10:32.357Z,7.30
2022-12-26T19:13:05.668Z,7.31
2022-12-26T19:15:36.570Z,7.24
2022-12-26T19:18:05.169Z,7.24
2022-12-26T19:20:32.473Z,7.29
2022-12-26T19:22:59.368Z,7.17
2022-12-26T19:25:26.786Z,7.21
2022-12-26T19:27:54.859Z,7.23
2022-12-26T19:30:22.752Z,7.17
2022-12-26T19:32:50.623Z,7.21
2022-12-26T19:35:18.374Z,7.11
2022-12-26T19:37:45.692Z,7.09
2022-12-26T19:40:13.659Z,7.10
2022-12-26T19:42:40.772Z,7.08
2022-12-26T19:45:10.060Z,7.02
2022-12-26T19:47:37.674Z,6.83
2022-12-26T19:50:06.728Z,6.88
2022-12-26T19:52:36.783Z,6.84
2022-12-26T19:55:06.368Z,6.73
2022-12-26T19:57:33.554Z,6.71
2022-12-26T20:00:00.650Z,6.62
2022-12-26T20:02:27.741Z,6.52
2022-12-26T20:04:54.937Z,6.57
2022-12-26T20:07:21.909Z,6.51
2022-12-26T20:09:48.973Z,6.48
2022-12-26T20:12:16.186Z,6.45
2022-12-26T20:15:03.461Z,6.45
2022-12-26T20:17:30.613Z,6.39
2022-12-26T20:19:57.805Z,6.35
2022-12-26T20:22:24.811Z,6.33
2022-12-26T20:24:51.766Z,6.26
2022-12-26T20:27:18.962Z,6.25
2022-12-26T20:29:46.018Z,6.29
2022-12-26T20:32:12.894Z,6.39
2022-12-26T20:34:40.013Z,6.37
2022-12-26T20:37:07.047Z,6.34
2022-12-26T20:39:34.085Z,6.29
2022-12-26T20:42:01.031Z,6.25
2022-12-26T20:44:28.057Z,6.23
2022-12-26T20:46:55.243Z,6.18
2022-12-26T20:49:22.252Z,6.22
2022-12-26T20:51:49.242Z,6.36
2022-12-26T20:54:16.796Z,6.38
2022-12-26T20:56:45.064Z,6.42
2022-12-26T20:59:12.073Z,6.41
2022-12-26T21:01:40.566Z,6.37
2022-12-26T21:04:09.023Z,6.43
2022-12-26T21:06:37.865Z,6.48
2022-12-26T21:09:06.828Z,6.40
2022-12-26T21:11:39.036Z,6.46
2022-12-26T21:14:10.337Z,6.34
2022-12-26T21:16:39.895Z,6.35
2022-12-26T21:19:12.541Z,6.29
2022-12-26T21:21:44.507Z,6.13
2022-12-26T21:24:15.306Z,6.08
2022-12-26T21:26:42.925Z,5.94
2022-12-26T21:29:15.361Z,6.00
2022-12-26T21:31:42.629Z,5.92
2022-12-26T21:34:12.629Z,5.81
2022-12-26T21:36:40.113Z,5.90
2022-12-26T21:39:09.322Z,5.90
2022-12-26T21:41:39.568Z,5.71
2022-12-26T21:44:06.594Z,5.59
2022-12-26T21:46:34.495Z,5.53
2022-12-26T21:49:01.519Z,5.54
2022-12-26T21:51:29.789Z,5.39
2022-12-26T21:54:16.654Z,5.34
2022-12-26T21:56:43.658Z,5.36
2022-12-26T21:59:49.629Z,5.31
2022-12-26T22:02:35.314Z,5.26
2022-12-26T22:05:02.535Z,5.25
2022-12-26T22:07:29.543Z,5.29
2022-12-26T22:09:56.432Z,5.33
2022-12-26T22:12:44.986Z,5.26
2022-12-26T22:15:30.297Z,5.34
2022-12-26T22:17:57.763Z,5.32
2022-12-26T22:20:25.371Z,5.35
2022-12-26T22:22:52.518Z,5.28
2022-12-26T22:25:19.934Z,5.22
2022-12-26T22:27:47.475Z,5.29
2022-12-26T22:30:14.542Z,5.28
2022-12-26T22:32:41.541Z,5.34
2022-12-26T22:35:14.827Z,5.30
2022-12-26T22:37:45.275Z,5.37
2022-12-26T22:40:12.625Z,5.30
2022-12-26T22:42:39.676Z,5.26
2022-12-26T22:45:07.217Z,5.23
2022-12-26T22:47:34.158Z,5.26
2022-12-26T22:50:01.237Z,5.33
2022-12-26T22:52:28.973Z,5.17
2022-12-26T22:54:55.995Z,5.17
2022-12-26T22:57:23.829Z,5.11
2022-12-26T23:00:08.107Z,5.11
2022-12-26T23:02:36.123Z,5.09
2022-12-26T23:05:04.190Z,5.06
2022-12-26T23:07:31.815Z,4.96
2022-12-26T23:09:59.300Z,4.92
2022-12-26T23:12:45.104Z,4.87
2022-12-26T23:15:18.500Z,4.87
2022-12-26T23:18:11.465Z,4.96
2022-12-26T23:20:58.057Z,4.93
2022-12-26T23:23:25.724Z,4.94
2022-12-26T23:25:52.779Z,4.88
2022-12-26T23:28:38.319Z,4.91
2022-12-26T23:31:05.441Z,4.88
2022-12-26T23:33:32.797Z,4.95
2022-12-26T23:36:00.068Z,4.90
2022-12-26T23:38:27.269Z,4.96
2022-12-26T23:40:54.325Z,4.90
2022-12-26T23:43:21.359Z,4.95
2022-12-26T23:45:48.278Z,4.97
2022-12-26T23:48:15.447Z,5.08
2022-12-26T23:50:42.435Z,5.04
2022-12-26T23:53:09.537Z,5.10
2022-12-26T23:55:41.811Z,5.17
2022-12-26T23:58:11.714Z,5.19
